sensor_id;sensor_type;location;lat;lon;timestamp;pressure;altitude;pressure_sealevel;temperature;humidity
78444;BME280;67739;52.986;8.894;2023-05-19T00:00:40;102896.34;;;7.26;77.94
78444;BME280;67739;52.986;8.894;2023-05-19T00:03:05;102897.22;;;7.22;77.80
78444;BME280;67739;52.986;8.894;2023-05-19T00:05:34;102886.59;;;7.16;77.97
78444;BME280;67739;52.986;8.894;2023-05-19T00:08:01;102888.34;;;7.11;77.92
78444;BME280;67739;52.986;8.894;2023-05-19T00:10:28;102889.25;;;7.05;78.05
78444;BME280;67739;52.986;8.894;2023-05-19T00:12:56;102891.03;;;7.02;77.62
78444;BME280;67739;52.986;8.894;2023-05-19T00:15:22;102888.34;;;6.97;77.66
78444;BME280;67739;52.986;8.894;2023-05-19T00:17:47;102885.69;;;6.93;78.09
78444;BME280;67739;52.986;8.894;2023-05-19T00:20:13;102889.25;;;6.87;78.00
78444;BME280;67739;52.986;8.894;2023-05-19T00:22:38;102885.66;;;6.79;77.84
78444;BME280;67739;52.986;8.894;2023-05-19T00:25:04;102876.78;;;6.69;77.25
78444;BME280;67739;52.986;8.894;2023-05-19T00:27:30;102873.22;;;6.58;77.73
78444;BME280;67739;52.986;8.894;2023-05-19T00:29:55;102881.19;;;6.51;77.99
78444;BME280;67739;52.986;8.894;2023-05-19T00:32:21;102879.41;;;6.44;77.61
78444;BME280;67739;52.986;8.894;2023-05-19T00:34:46;102876.72;;;6.34;78.05
78444;BME280;67739;52.986;8.894;2023-05-19T00:37:12;102879.38;;;6.28;77.70
78444;BME280;67739;52.986;8.894;2023-05-19T00:39:38;102874.91;;;6.24;78.01
78444;BME280;67739;52.986;8.894;2023-05-19T00:42:03;102879.34;;;6.18;78.14
78444;BME280;67739;52.986;8.894;2023-05-19T00:44:30;102885.53;;;6.12;78.18
78444;BME280;67739;52.986;8.894;2023-05-19T00:46:56;102876.63;;;6.07;78.24
78444;BME280;67739;52.986;8.894;2023-05-19T00:49:21;102879.28;;;6.01;78.09
78444;BME280;67739;52.986;8.894;2023-05-19T00:51:47;102874.81;;;5.95;78.10
78444;BME280;67739;52.986;8.894;2023-05-19T00:54:13;102887.22;;;5.92;78.42
78444;BME280;67739;52.986;8.894;2023-05-19T00:56:39;102894.34;;;5.90;78.93
78444;BME280;67739;52.986;8.894;2023-05-19T00:59:04;102890.72;;;5.86;79.00
78444;BME280;67739;52.986;8.894;2023-05-19T01:01:30;102883.59;;;5.84;79.06
78444;BME280;67739;52.986;8.894;2023-05-19T01:03:56;102880.03;;;5.80;78.97
78444;BME280;67739;52.986;8.894;2023-05-19T01:06:23;102878.25;;;5.76;79.08
78444;BME280;67739;52.986;8.894;2023-05-19T01:08:50;102885.34;;;5.74;79.00
78444;BME280;67739;52.986;8.894;2023-05-19T01:11:15;102877.31;;;5.69;79.39
78444;BME280;67739;52.986;8.894;2023-05-19T01:13:41;102885.28;;;5.68;79.48
78444;BME280;67739;52.986;8.894;2023-05-19T01:16:16;102883.50;;;5.65;79.63
78444;BME280;67739;52.986;8.894;2023-05-19T01:24:11;102879.91;;;5.56;79.93
78444;BME280;67739;52.986;8.894;2023-05-19T01:32:24;102874.53;;;5.45;79.99
78444;BME280;67739;52.986;8.894;2023-05-19T01:34:50;102875.41;;;5.43;80.15
78444;BME280;67739;52.986;8.894;2023-05-19T01:37:16;102872.72;;;5.41;80.47
78444;BME280;67739;52.986;8.894;2023-05-19T01:39:44;102876.25;;;5.39;80.70
78444;BME280;67739;52.986;8.894;2023-05-19T01:42:11;102878.00;;;5.37;80.84
78444;BME280;67739;52.986;8.894;2023-05-19T01:44:38;102877.09;;;5.34;80.64
78444;BME280;67739;52.986;8.894;2023-05-19T01:47:03;102878.00;;;5.33;80.90
78444;BME280;67739;52.986;8.894;2023-05-19T01:49:29;102880.66;;;5.32;81.12
78444;BME280;67739;52.986;8.894;2023-05-19T01:51:55;102872.66;;;5.30;81.23
78444;BME280;67739;52.986;8.894;2023-05-19T01:54:20;102884.19;;;5.29;81.27
78444;BME280;67739;52.986;8.894;2023-05-19T01:59:41;102885.06;;;5.30;81.82
78444;BME280;67739;52.986;8.894;2023-05-19T02:02:31;102889.50;;;5.28;81.53
78444;BME280;67739;52.986;8.894;2023-05-19T02:05:09;102890.31;;;5.22;80.98
78444;BME280;67739;52.986;8.894;2023-05-19T02:10:13;102880.50;;;5.14;81.76
78444;BME280;67739;52.986;8.894;2023-05-19T02:12:44;102876.06;;;5.11;81.95
78444;BME280;67739;52.986;8.894;2023-05-19T02:15:14;102880.44;;;5.08;81.69
78444;BME280;67739;52.986;8.894;2023-05-19T02:17:42;102883.97;;;5.05;82.16
78444;BME280;67739;52.986;8.894;2023-05-19T02:20:08;102882.22;;;5.06;82.36
78444;BME280;67739;52.986;8.894;2023-05-19T02:22:34;102876.91;;;5.07;82.91
78444;BME280;67739;52.986;8.894;2023-05-19T02:25:00;102885.75;;;5.06;82.74
78444;BME280;67739;52.986;8.894;2023-05-19T02:27:25;102883.97;;;5.05;82.97
78444;BME280;67739;52.986;8.894;2023-05-19T02:29:51;102880.47;;;5.05;82.89
78444;BME280;67739;52.986;8.894;2023-05-19T02:32:16;102884.88;;;5.06;82.82
78444;BME280;67739;52.986;8.894;2023-05-19T02:34:41;102875.13;;;5.05;83.29
78444;BME280;67739;52.986;8.894;2023-05-19T02:37:16;102880.44;;;5.08;83.17
78444;BME280;67739;52.986;8.894;2023-05-19T02:39:42;102874.28;;;5.10;83.36
78444;BME280;67739;52.986;8.894;2023-05-19T02:42:07;102881.38;;;5.13;83.62
78444;BME280;67739;52.986;8.894;2023-05-19T02:44:33;102874.31;;;5.15;84.06
78444;BME280;67739;52.986;8.894;2023-05-19T02:46:58;102874.38;;;5.19;84.29
78444;BME280;67739;52.986;8.894;2023-05-19T02:49:24;102870.78;;;5.20;84.89
78444;BME280;67739;52.986;8.894;2023-05-19T02:51:49;102863.72;;;5.24;84.44
78444;BME280;67739;52.986;8.894;2023-05-19T02:54:14;102866.41;;;5.27;84.25
78444;BME280;67739;52.986;8.894;2023-05-19T02:56:40;102860.22;;;5.28;84.41
78444;BME280;67739;52.986;8.894;2023-05-19T02:59:05;102868.22;;;5.31;84.50
78444;BME280;67739;52.986;8.894;2023-05-19T03:01:30;102862.03;;;5.33;84.65
78444;BME280;67739;52.986;8.894;2023-05-19T03:03:58;102854.06;;;5.33;84.82
78444;BME280;67739;52.986;8.894;2023-05-19T03:06:24;102857.56;;;5.34;84.79
78444;BME280;67739;52.986;8.894;2023-05-19T03:08:50;102859.34;;;5.35;84.79
78444;BME280;67739;52.986;8.894;2023-05-19T03:11:15;102860.25;;;5.36;85.11
78444;BME280;67739;52.986;8.894;2023-05-19T03:13:41;102851.38;;;5.37;84.76
78444;BME280;67739;52.986;8.894;2023-05-19T03:16:06;102854.94;;;5.39;84.59
78444;BME280;67739;52.986;8.894;2023-05-19T03:18:33;102854.94;;;5.36;84.21
78444;BME280;67739;52.986;8.894;2023-05-19T03:20:58;102846.06;;;5.33;84.65
78444;BME280;67739;52.986;8.894;2023-05-19T03:23:24;102845.19;;;5.33;84.62
78444;BME280;67739;52.986;8.894;2023-05-19T03:25:50;102854.94;;;5.32;84.34
78444;BME280;67739;52.986;8.894;2023-05-19T03:28:18;102854.94;;;5.32;84.67
78444;BME280;67739;52.986;8.894;2023-05-19T03:30:43;102850.50;;;5.31;84.33
78444;BME280;67739;52.986;8.894;2023-05-19T03:33:08;102855.81;;;5.31;84.51
78444;BME280;67739;52.986;8.894;2023-05-19T03:35:34;102851.38;;;5.30;84.66
78444;BME280;67739;52.986;8.894;2023-05-19T03:37:59;102860.22;;;5.29;84.93
78444;BME280;67739;52.986;8.894;2023-05-19T03:40:25;102854.88;;;5.25;84.88
78444;BME280;67739;52.986;8.894;2023-05-19T03:42:50;102863.72;;;5.22;84.80
78444;BME280;67739;52.986;8.894;2023-05-19T03:45:15;102868.16;;;5.23;84.89
78444;BME280;67739;52.986;8.894;2023-05-19T03:47:40;102865.50;;;5.25;84.87
78444;BME280;67739;52.986;8.894;2023-05-19T03:50:06;102869.97;;;5.27;84.82
78444;BME280;67739;52.986;8.894;2023-05-19T03:52:32;102870.84;;;5.28;85.33
78444;BME280;67739;52.986;8.894;2023-05-19T03:54:57;102866.44;;;5.30;84.95
78444;BME280;67739;52.986;8.894;2023-05-19T03:57:23;102867.34;;;5.32;85.30
78444;BME280;67739;52.986;8.894;2023-05-19T03:59:48;102862.91;;;5.34;84.72
78444;BME280;67739;52.986;8.894;2023-05-19T04:02:13;102864.69;;;5.35;84.98
78444;BME280;67739;52.986;8.894;2023-05-19T04:04:39;102861.19;;;5.41;84.70
78444;BME280;67739;52.986;8.894;2023-05-19T04:07:04;102862.97;;;5.42;84.65
78444;BME280;67739;52.986;8.894;2023-05-19T04:09:29;102877.19;;;5.44;84.75
78444;BME280;67739;52.986;8.894;2023-05-19T04:11:59;102863.91;;;5.47;84.89
78444;BME280;67739;52.986;8.894;2023-05-19T04:14:25;102859.44;;;5.49;84.51
78444;BME280;67739;52.986;8.894;2023-05-19T04:16:50;102862.13;;;5.50;84.61
78444;BME280;67739;52.986;8.894;2023-05-19T04:19:16;102867.44;;;5.49;84.23
78444;BME280;67739;52.986;8.894;2023-05-19T04:21:41;102867.44;;;5.49;84.06
78444;BME280;67739;52.986;8.894;2023-05-19T04:24:07;102861.22;;;5.50;84.23
78444;BME280;67739;52.986;8.894;2023-05-19T04:26:32;102873.66;;;5.51;84.11
78444;BME280;67739;52.986;8.894;2023-05-19T04:28:58;102871.88;;;5.51;83.88
78444;BME280;67739;52.986;8.894;2023-05-19T04:31:24;102877.19;;;5.50;83.60
78444;BME280;67739;52.986;8.894;2023-05-19T04:33:50;102880.75;;;5.52;83.72
78444;BME280;67739;52.986;8.894;2023-05-19T04:36:17;102868.34;;;5.52;83.74
78444;BME280;67739;52.986;8.894;2023-05-19T04:38:45;102874.56;;;5.54;83.82
78444;BME280;67739;52.986;8.894;2023-05-19T04:41:11;102874.56;;;5.54;83.23
78444;BME280;67739;52.986;8.894;2023-05-19T04:43:39;102877.25;;;5.56;83.61
78444;BME280;67739;52.986;8.894;2023-05-19T04:46:08;102866.59;;;5.57;83.36
78444;BME280;67739;52.986;8.894;2023-05-19T04:48:35;102867.50;;;5.58;83.17
78444;BME280;67739;52.986;8.894;2023-05-19T04:51:00;102873.72;;;5.60;83.27
78444;BME280;67739;52.986;8.894;2023-05-19T04:53:27;102872.84;;;5.61;83.51
78444;BME280;67739;52.986;8.894;2023-05-19T04:55:52;102881.72;;;5.61;83.27
78444;BME280;67739;52.986;8.894;2023-05-19T04:58:18;102872.84;;;5.64;83.28
78444;BME280;67739;52.986;8.894;2023-05-19T05:00:43;102876.41;;;5.66;83.20
78444;BME280;67739;52.986;8.894;2023-05-19T05:03:09;102881.75;;;5.69;83.34
78444;BME280;67739;52.986;8.894;2023-05-19T05:05:34;102886.22;;;5.72;83.02
78444;BME280;67739;52.986;8.894;2023-05-19T05:08:00;102885.34;;;5.74;83.19
78444;BME280;67739;52.986;8.894;2023-05-19T05:10:25;102883.59;;;5.76;83.04
78444;BME280;67739;52.986;8.894;2023-05-19T05:12:51;102885.34;;;5.79;82.75
78444;BME280;67739;52.986;8.894;2023-05-19T05:15:17;102879.13;;;5.80;82.91
78444;BME280;67739;52.986;8.894;2023-05-19T05:17:42;102883.59;;;5.82;82.73
78444;BME280;67739;52.986;8.894;2023-05-19T05:20:08;102883.63;;;5.85;83.08
78444;BME280;67739;52.986;8.894;2023-05-19T05:22:35;102882.78;;;5.94;83.39
78444;BME280;67739;52.986;8.894;2023-05-19T05:25:03;102884.63;;;6.06;84.36
78444;BME280;67739;52.986;8.894;2023-05-19T05:27:28;102884.66;;;6.22;85.06
78444;BME280;67739;52.986;8.894;2023-05-19T05:29:54;102880.28;;;6.39;84.42
78444;BME280;67739;52.986;8.894;2023-05-19T05:32:20;102875.91;;;6.61;85.22
78444;BME280;67739;52.986;8.894;2023-05-19T05:34:45;102883.91;;;6.95;86.13
78444;BME280;67739;52.986;8.894;2023-05-19T05:37:11;102887.44;;;7.27;82.41
78444;BME280;67739;52.986;8.894;2023-05-19T05:39:36;102878.50;;;7.56;81.18
78444;BME280;67739;52.986;8.894;2023-05-19T05:42:01;102878.41;;;7.80;78.80
78444;BME280;67739;52.986;8.894;2023-05-19T05:44:27;102877.44;;;8.07;80.96
78444;BME280;67739;52.986;8.894;2023-05-19T05:46:52;102883.50;;;8.42;78.47
78444;BME280;67739;52.986;8.894;2023-05-19T05:49:18;102883.34;;;8.68;75.43
78444;BME280;67739;52.986;8.894;2023-05-19T05:51:43;102875.19;;;8.83;74.69
78444;BME280;67739;52.986;8.894;2023-05-19T05:54:10;102884.88;;;9.01;73.54
78444;BME280;67739;52.986;8.894;2023-05-19T05:56:36;102878.59;;;9.08;72.37
78444;BME280;67739;52.986;8.894;2023-05-19T05:59:02;102876.69;;;9.19;73.39
78444;BME280;67739;52.986;8.894;2023-05-19T06:01:27;102872.00;;;9.40;74.02
78444;BME280;67739;52.986;8.894;2023-05-19T06:03:55;102881.53;;;9.67;73.24
78444;BME280;67739;52.986;8.894;2023-05-19T06:06:20;102877.78;;;9.84;71.55
78444;BME280;67739;52.986;8.894;2023-05-19T06:08:45;102870.41;;;10.03;71.15
78444;BME280;67739;52.986;8.894;2023-05-19T06:11:11;102877.22;;;10.32;70.78
78444;BME280;67739;52.986;8.894;2023-05-19T06:13:37;102873.25;;;10.55;67.76
78444;BME280;67739;52.986;8.894;2023-05-19T06:16:03;102873.88;;;10.74;67.47
78444;BME280;67739;52.986;8.894;2023-05-19T06:18:29;102879.00;;;10.89;69.05
78444;BME280;67739;52.986;8.894;2023-05-19T06:20:54;102872.31;;;11.13;67.93
78444;BME280;67739;52.986;8.894;2023-05-19T06:23:20;102872.09;;;11.25;64.85
78444;BME280;67739;52.986;8.894;2023-05-19T06:25:45;102869.97;;;11.46;68.46
78444;BME280;67739;52.986;8.894;2023-05-19T06:28:11;102862.97;;;11.83;68.17
78444;BME280;67739;52.986;8.894;2023-05-19T06:30:36;102869.44;;;12.16;65.73
78444;BME280;67739;52.986;8.894;2023-05-19T06:33:02;102870.94;;;12.29;64.63
78444;BME280;67739;52.986;8.894;2023-05-19T06:35:28;102868.47;;;12.59;65.62
78444;BME280;67739;52.986;8.894;2023-05-19T06:37:53;102871.38;;;12.87;64.20
78444;BME280;67739;52.986;8.894;2023-05-19T06:40:20;102866.19;;;13.16;62.27
78444;BME280;67739;52.986;8.894;2023-05-19T06:42:46;102861.19;;;13.35;61.69
78444;BME280;67739;52.986;8.894;2023-05-19T06:45:11;102868.88;;;13.50;60.14
78444;BME280;67739;52.986;8.894;2023-05-19T06:47:36;102863.25;;;13.58;59.19
78444;BME280;67739;52.986;8.894;2023-05-19T06:50:02;102863.06;;;13.65;60.14
78444;BME280;67739;52.986;8.894;2023-05-19T06:52:27;102861.75;;;13.80;59.92
78444;BME280;67739;52.986;8.894;2023-05-19T06:54:53;102861.50;;;13.88;56.52
78444;BME280;67739;52.986;8.894;2023-05-19T06:57:18;102860.63;;;13.87;56.95
78444;BME280;67739;52.986;8.894;2023-05-19T06:59:43;102873.81;;;13.98;59.53
78444;BME280;67739;52.986;8.894;2023-05-19T07:02:10;102874.00;;;14.21;57.67
78444;BME280;67739;52.986;8.894;2023-05-19T07:04:36;102866.06;;;14.46;59.27
78444;BME280;67739;52.986;8.894;2023-05-19T07:07:01;102869.25;;;14.86;58.94
78444;BME280;67739;52.986;8.894;2023-05-19T07:09:27;102869.28;;;15.13;54.03
78444;BME280;67739;52.986;8.894;2023-05-19T07:11:52;102869.25;;;15.39;55.56
78444;BME280;67739;52.986;8.894;2023-05-19T07:14:17;102870.13;;;15.66;54.13
78444;BME280;67739;52.986;8.894;2023-05-19T07:16:44;102868.63;;;15.82;53.74
78444;BME280;67739;52.986;8.894;2023-05-19T07:19:10;102866.97;;;16.02;51.64
78444;BME280;67739;52.986;8.894;2023-05-19T07:21:35;102866.81;;;16.06;53.22
78444;BME280;67739;52.986;8.894;2023-05-19T07:24:01;102868.22;;;16.16;53.46
78444;BME280;67739;52.986;8.894;2023-05-19T07:26:27;102867.16;;;16.20;51.62
78444;BME280;67739;52.986;8.894;2023-05-19T07:28:52;102870.47;;;16.29;50.26
78444;BME280;67739;52.986;8.894;2023-05-19T07:31:18;102852.84;;;16.40;52.35
78444;BME280;67739;52.986;8.894;2023-05-19T07:33:43;102861.53;;;16.48;51.87
78444;BME280;67739;52.986;8.894;2023-05-19T07:36:08;102857.53;;;16.58;50.14
78444;BME280;67739;52.986;8.894;2023-05-19T07:38:34;102851.34;;;16.55;49.65
78444;BME280;67739;52.986;8.894;2023-05-19T07:41:00;102857.66;;;16.55;52.05
78444;BME280;67739;52.986;8.894;2023-05-19T07:43:26;102849.00;;;16.69;50.68
78444;BME280;67739;52.986;8.894;2023-05-19T07:45:51;102853.25;;;16.75;49.39
78444;BME280;67739;52.986;8.894;2023-05-19T07:48:18;102856.06;;;16.73;49.60
78444;BME280;67739;52.986;8.894;2023-05-19T07:50:46;102856.28;;;16.67;48.77
78444;BME280;67739;52.986;8.894;2023-05-19T07:53:12;102853.66;;;16.66;48.92
78444;BME280;67739;52.986;8.894;2023-05-19T07:55:37;102855.81;;;16.56;49.84
78444;BME280;67739;52.986;8.894;2023-05-19T07:58:03;102852.41;;;16.51;49.82
78444;BME280;67739;52.986;8.894;2023-05-19T08:00:28;102855.47;;;16.65;51.32
78444;BME280;67739;52.986;8.894;2023-05-19T08:02:53;102843.41;;;16.94;49.48
78444;BME280;67739;52.986;8.894;2023-05-19T08:05:20;102848.59;;;17.20;49.89
78444;BME280;67739;52.986;8.894;2023-05-19T08:07:46;102844.69;;;17.27;48.51
78444;BME280;67739;52.986;8.894;2023-05-19T08:10:11;102852.16;;;17.43;46.27
78444;BME280;67739;52.986;8.894;2023-05-19T08:12:36;102839.56;;;17.60;46.93
78444;BME280;67739;52.986;8.894;2023-05-19T08:15:02;102842.31;;;17.81;47.82
78444;BME280;67739;52.986;8.894;2023-05-19T08:17:27;102848.34;;;17.87;45.71
78444;BME280;67739;52.986;8.894;2023-05-19T08:19:53;102832.44;;;17.98;46.99
78444;BME280;67739;52.986;8.894;2023-05-19T08:22:18;102841.22;;;18.03;46.03
78444;BME280;67739;52.986;8.894;2023-05-19T08:24:43;102839.91;;;17.93;44.95
78444;BME280;67739;52.986;8.894;2023-05-19T08:27:09;102841.41;;;18.00;47.70
78444;BME280;67739;52.986;8.894;2023-05-19T08:29:35;102835.38;;;18.13;47.11
78444;BME280;67739;52.986;8.894;2023-05-19T08:32:01;102830.63;;;18.18;45.89
78444;BME280;67739;52.986;8.894;2023-05-19T08:34:27;102834.88;;;18.23;45.11
78444;BME280;67739;52.986;8.894;2023-05-19T08:36:53;102827.66;;;18.22;45.08
78444;BME280;67739;52.986;8.894;2023-05-19T08:39:21;102818.56;;;18.23;45.38
78444;BME280;67739;52.986;8.894;2023-05-19T08:41:53;102828.91;;;18.34;45.28
78444;BME280;67739;52.986;8.894;2023-05-19T08:44:19;102818.50;;;18.44;44.46
78444;BME280;67739;52.986;8.894;2023-05-19T08:46:46;102824.41;;;18.52;45.69
78444;BME280;67739;52.986;8.894;2023-05-19T08:49:12;102820.53;;;18.57;43.85
78444;BME280;67739;52.986;8.894;2023-05-19T08:54:29;102811.13;;;18.64;44.06
78444;BME280;67739;52.986;8.894;2023-05-19T08:56:57;102805.00;;;18.78;44.08
78444;BME280;67739;52.986;8.894;2023-05-19T08:59:23;102801.56;;;18.92;43.95
78444;BME280;67739;52.986;8.894;2023-05-19T09:01:49;102803.94;;;19.17;44.90
78444;BME280;67739;52.986;8.894;2023-05-19T09:04:15;102796.28;;;19.40;42.40
78444;BME280;67739;52.986;8.894;2023-05-19T09:06:41;102794.91;;;19.66;44.50
78444;BME280;67739;52.986;8.894;2023-05-19T09:09:09;102787.41;;;19.87;42.46
78444;BME280;67739;52.986;8.894;2023-05-19T09:11:34;102783.03;;;20.00;41.86
78444;BME280;67739;52.986;8.894;2023-05-19T09:14:02;102776.63;;;20.01;40.13
78444;BME280;67739;52.986;8.894;2023-05-19T09:16:28;102777.22;;;20.06;41.18
78444;BME280;67739;52.986;8.894;2023-05-19T09:18:54;102775.75;;;20.17;41.53
78444;BME280;67739;52.986;8.894;2023-05-19T09:21:26;102781.56;;;20.26;39.97
78444;BME280;67739;52.986;8.894;2023-05-19T09:23:52;102773.91;;;20.33;38.61
78444;BME280;67739;52.986;8.894;2023-05-19T09:26:20;102775.25;;;20.41;39.93
78444;BME280;67739;52.986;8.894;2023-05-19T09:28:47;102765.84;;;20.47;39.13
78444;BME280;67739;52.986;8.894;2023-05-19T09:31:13;102761.94;;;20.51;38.30
78444;BME280;67739;52.986;8.894;2023-05-19T09:33:39;102765.47;;;20.53;38.53
78444;BME280;67739;52.986;8.894;2023-05-19T09:36:06;102778.84;;;20.42;38.39
78444;BME280;67739;52.986;8.894;2023-05-19T09:38:36;102770.88;;;20.06;38.36
78444;BME280;67739;52.986;8.894;2023-05-19T09:41:03;102768.56;;;19.67;38.72
78444;BME280;67739;52.986;8.894;2023-05-19T09:43:30;102766.88;;;19.64;39.37
78444;BME280;67739;52.986;8.894;2023-05-19T09:46:07;102765.50;;;19.73;39.51
78444;BME280;67739;52.986;8.894;2023-05-19T09:48:33;102759.47;;;19.99;38.26
78444;BME280;67739;52.986;8.894;2023-05-19T09:51:01;102760.97;;;20.21;38.66
78444;BME280;67739;52.986;8.894;2023-05-19T09:53:28;102765.81;;;20.31;38.34
78444;BME280;67739;52.986;8.894;2023-05-19T09:55:55;102748.59;;;20.46;40.01
78444;BME280;67739;52.986;8.894;2023-05-19T09:58:22;102756.81;;;20.76;39.02
78444;BME280;67739;52.986;8.894;2023-05-19T10:00:49;102755.69;;;20.95;37.67
78444;BME280;67739;52.986;8.894;2023-05-19T10:03:15;102752.56;;;20.87;37.49
78444;BME280;67739;52.986;8.894;2023-05-19T10:05:43;102745.47;;;20.68;37.06
78444;BME280;67739;52.986;8.894;2023-05-19T10:08:10;102744.97;;;20.62;37.79
78444;BME280;67739;52.986;8.894;2023-05-19T10:10:36;102744.50;;;20.69;37.63
78444;BME280;67739;52.986;8.894;2023-05-19T10:13:02;102732.66;;;20.85;36.13
78444;BME280;67739;52.986;8.894;2023-05-19T10:15:28;102721.09;;;20.95;35.23
78444;BME280;67739;52.986;8.894;2023-05-19T10:17:55;102714.00;;;21.07;37.00
78444;BME280;67739;52.986;8.894;2023-05-19T10:20:20;102725.75;;;21.23;35.72
78444;BME280;67739;52.986;8.894;2023-05-19T10:22:46;102720.13;;;21.40;37.45
78444;BME280;67739;52.986;8.894;2023-05-19T10:25:13;102720.72;;;21.60;35.83
78444;BME280;67739;52.986;8.894;2023-05-19T10:27:45;102717.38;;;21.40;33.09
78444;BME280;67739;52.986;8.894;2023-05-19T10:30:15;102720.25;;;21.09;34.27
78444;BME280;67739;52.986;8.894;2023-05-19T10:32:43;102717.44;;;20.80;35.90
78444;BME280;67739;52.986;8.894;2023-05-19T10:40:59;102723.97;;;20.78;35.29
78444;BME280;67739;52.986;8.894;2023-05-19T10:46:11;102708.50;;;21.23;33.86
78444;BME280;67739;52.986;8.894;2023-05-19T10:48:37;102709.00;;;21.29;33.76
78444;BME280;67739;52.986;8.894;2023-05-19T10:51:03;102707.09;;;21.15;34.75
78444;BME280;67739;52.986;8.894;2023-05-19T10:53:32;102709.31;;;20.95;35.26
78444;BME280;67739;52.986;8.894;2023-05-19T10:56:00;102711.59;;;20.72;35.78
78444;BME280;67739;52.986;8.894;2023-05-19T10:58:58;102708.13;;;20.55;36.70
78444;BME280;67739;52.986;8.894;2023-05-19T11:01:30;102695.63;;;20.80;36.87
78444;BME280;67739;52.986;8.894;2023-05-19T11:03:56;102692.81;;;21.26;35.12
78444;BME280;67739;52.986;8.894;2023-05-19T11:06:31;102691.44;;;21.76;33.91
78444;BME280;67739;52.986;8.894;2023-05-19T11:09:04;102685.72;;;21.93;28.91
78444;BME280;67739;52.986;8.894;2023-05-19T11:11:45;102684.53;;;21.97;32.15
78444;BME280;67739;52.986;8.894;2023-05-19T11:14:11;102687.59;;;21.93;33.27
78444;BME280;67739;52.986;8.894;2023-05-19T11:16:39;102684.88;;;21.64;33.30
78444;BME280;67739;52.986;8.894;2023-05-19T11:19:07;102685.91;;;21.35;33.65
78444;BME280;67739;52.986;8.894;2023-05-19T11:21:52;102694.56;;;21.27;33.83
78444;BME280;67739;52.986;8.894;2023-05-19T11:27:16;102696.47;;;21.11;32.24
78444;BME280;67739;52.986;8.894;2023-05-19T11:29:42;102689.31;;;20.94;33.59
78444;BME280;67739;52.986;8.894;2023-05-19T11:32:08;102700.91;;;20.83;33.95
78444;BME280;67739;52.986;8.894;2023-05-19T11:34:36;102698.03;;;20.71;32.63
78444;BME280;67739;52.986;8.894;2023-05-19T11:37:03;102683.31;;;20.59;34.39
78444;BME280;67739;52.986;8.894;2023-05-19T11:39:30;102693.72;;;20.37;35.38
78444;BME280;67739;52.986;8.894;2023-05-19T11:41:55;102683.75;;;19.90;35.34
78444;BME280;67739;52.986;8.894;2023-05-19T11:44:20;102694.72;;;19.73;36.52
78444;BME280;67739;52.986;8.894;2023-05-19T11:46:46;102686.97;;;19.97;39.01
78444;BME280;67739;52.986;8.894;2023-05-19T11:49:11;102678.25;;;20.22;34.71
78444;BME280;67739;52.986;8.894;2023-05-19T11:51:37;102678.50;;;20.33;35.53
78444;BME280;67739;52.986;8.894;2023-05-19T11:54:03;102676.44;;;20.52;34.73
78444;BME280;67739;52.986;8.894;2023-05-19T11:56:39;102674.22;;;20.89;36.56
78444;BME280;67739;52.986;8.894;2023-05-19T11:59:05;102680.69;;;21.16;34.18
78444;BME280;67739;52.986;8.894;2023-05-19T12:01:32;102667.78;;;21.20;34.34
78444;BME280;67739;52.986;8.894;2023-05-19T12:03:58;102671.81;;;21.12;34.71
78444;BME280;67739;52.986;8.894;2023-05-19T12:06:25;102673.91;;;20.93;34.92
78444;BME280;67739;52.986;8.894;2023-05-19T12:08:51;102672.94;;;20.50;35.35
78444;BME280;67739;52.986;8.894;2023-05-19T12:11:18;102678.44;;;20.19;35.99
78444;BME280;67739;52.986;8.894;2023-05-19T12:13:43;102676.06;;;19.81;36.43
78444;BME280;67739;52.986;8.894;2023-05-19T12:16:09;102672.91;;;19.57;36.61
78444;BME280;67739;52.986;8.894;2023-05-19T12:18:38;102674.44;;;19.46;36.30
78444;BME280;67739;52.986;8.894;2023-05-19T12:21:04;102672.28;;;19.35;37.55
78444;BME280;67739;52.986;8.894;2023-05-19T12:23:31;102666.94;;;19.33;38.08
78444;BME280;67739;52.986;8.894;2023-05-19T12:25:58;102669.16;;;19.42;37.49
78444;BME280;67739;52.986;8.894;2023-05-19T12:28:24;102665.25;;;19.80;38.35
78444;BME280;67739;52.986;8.894;2023-05-19T12:30:50;102657.31;;;20.38;38.83
78444;BME280;67739;52.986;8.894;2023-05-19T12:33:19;102644.31;;;20.87;36.41
78444;BME280;67739;52.986;8.894;2023-05-19T12:35:47;102647.34;;;21.11;36.97
78444;BME280;67739;52.986;8.894;2023-05-19T12:38:14;102638.88;;;21.15;34.84
78444;BME280;67739;52.986;8.894;2023-05-19T12:40:41;102641.97;;;20.95;35.53
78444;BME280;67739;52.986;8.894;2023-05-19T12:43:07;102642.44;;;20.73;35.55
78444;BME280;67739;52.986;8.894;2023-05-19T12:45:34;102649.72;;;20.59;36.87
78444;BME280;67739;52.986;8.894;2023-05-19T12:48:02;102640.81;;;20.55;34.83
78444;BME280;67739;52.986;8.894;2023-05-19T12:53:31;102641.78;;;20.54;36.36
78444;BME280;67739;52.986;8.894;2023-05-19T12:55:57;102638.09;;;20.55;36.94
78444;BME280;67739;52.986;8.894;2023-05-19T12:58:22;102633.34;;;20.59;35.26
78444;BME280;67739;52.986;8.894;2023-05-19T13:00:48;102639.13;;;20.82;36.00
78444;BME280;67739;52.986;8.894;2023-05-19T13:03:18;102629.63;;;21.18;35.35
78444;BME280;67739;52.986;8.894;2023-05-19T13:05:46;102632.91;;;21.51;34.15
78444;BME280;67739;52.986;8.894;2023-05-19T13:08:17;102623.59;;;21.82;35.41
78444;BME280;67739;52.986;8.894;2023-05-19T13:10:44;102624.34;;;22.26;34.35
78444;BME280;67739;52.986;8.894;2023-05-19T13:13:10;102629.28;;;22.33;31.67
78444;BME280;67739;52.986;8.894;2023-05-19T13:15:41;102629.09;;;22.09;32.74
78444;BME280;67739;52.986;8.894;2023-05-19T13:18:08;102630.72;;;21.85;34.26
78444;BME280;67739;52.986;8.894;2023-05-19T13:20:34;102623.66;;;21.40;33.47
78444;BME280;67739;52.986;8.894;2023-05-19T13:23:00;102630.88;;;20.98;34.44
78444;BME280;67739;52.986;8.894;2023-05-19T13:25:26;102636.84;;;20.61;35.67